Time;durP1;ratioP1;P1;durP2;ratioP2;P2;SDS_P1;SDS_P2;PMS_P1;PMS_P2;Temp;Humidity;BMP_temperature;BMP_pressure;BME280_temperature;BME280_humidity;BME280_pressure;Samples;Min_cycle;Max_cycle;Signal;HPM_P1;HPM_P2
2022/02/16 00:02:24;;;;;;;;;;;18.90;56.20;;;;;;5034404;28;1658;-69
2022/02/16 00:04:49;;;;;;;;;;;18.90;56.30;;;;;;5034425;28;1669;-70
2022/02/16 00:07:15;;;;;;;;;;;18.90;56.30;;;;;;5034419;28;1899;-69
2022/02/16 00:09:40;;;;;;;;;;;18.90;56.30;;;;;;5032530;28;1849;-69
2022/02/16 00:12:07;;;;;;;;;;;18.80;56.30;;;;;;5016534;28;1359;-69
2022/02/16 00:14:32;;;;;;;;;;;18.80;56.30;;;;;;5033170;28;1753;-70
2022/02/16 00:16:58;;;;;;;;;;;18.80;56.30;;;;;;5034122;28;1453;-69
2022/02/16 00:19:23;;;;;;;;;;;18.80;56.40;;;;;;5032201;28;1718;-69
2022/02/16 00:21:49;;;;;;;;;;;18.80;56.40;;;;;;5034161;28;1739;-70
2022/02/16 00:24:14;;;;;;;;;;;18.80;56.40;;;;;;5033997;28;1702;-69
2022/02/16 00:26:39;;;;;;;;;;;18.80;56.40;;;;;;5032788;28;1894;-69
2022/02/16 00:29:05;;;;;;;;;;;18.80;56.40;;;;;;5032910;28;1653;-70
2022/02/16 00:31:30;;;;;;;;;;;18.80;56.40;;;;;;5034334;28;1655;-69
2022/02/16 00:33:56;;;;;;;;;;;18.80;56.50;;;;;;5033519;28;1278;-69
2022/02/16 00:36:21;;;;;;;;;;;18.80;56.50;;;;;;5032841;28;1127;-69
2022/02/16 00:38:47;;;;;;;;;;;18.80;56.50;;;;;;5027593;28;1355;-69
2022/02/16 00:41:12;;;;;;;;;;;18.80;56.50;;;;;;5023948;28;1100;-68
2022/02/16 00:43:37;;;;;;;;;;;18.80;56.50;;;;;;5026632;28;1583;-68
2022/02/16 00:46:03;;;;;;;;;;;18.80;56.70;;;;;;5022981;28;1898;-69
2022/02/16 00:48:28;;;;;;;;;;;18.80;56.70;;;;;;5023769;28;1432;-69
2022/02/16 00:50:54;;;;;;;;;;;18.80;56.70;;;;;;5026006;28;1243;-69
2022/02/16 00:53:19;;;;;;;;;;;18.80;56.70;;;;;;5024335;28;1216;-69
2022/02/16 00:55:46;;;;;;;;;;;18.80;56.70;;;;;;5024027;28;1273;-69
2022/02/16 00:58:12;;;;;;;;;;;18.80;56.80;;;;;;5018623;28;1314;-69
2022/02/16 01:00:37;;;;;;;;;;;18.70;56.70;;;;;;5031847;28;1347;-69
2022/02/16 01:03:03;;;;;;;;;;;18.70;56.70;;;;;;5031731;28;1436;-69
2022/02/16 01:05:28;;;;;;;;;;;18.70;56.70;;;;;;5032021;28;1304;-69
2022/02/16 01:07:53;;;;;;;;;;;18.70;56.70;;;;;;5033200;28;1957;-69
2022/02/16 01:10:19;;;;;;;;;;;18.70;56.70;;;;;;5032084;28;1135;-68
2022/02/16 01:12:44;;;;;;;;;;;18.70;56.70;;;;;;5015497;28;1437;-68
2022/02/16 01:15:10;;;;;;;;;;;18.70;56.70;;;;;;5033068;28;1300;-69
2022/02/16 01:17:35;;;;;;;;;;;18.70;56.70;;;;;;5031908;28;1391;-68
2022/02/16 01:20:01;;;;;;;;;;;18.70;56.80;;;;;;5032721;28;1068;-68
2022/02/16 01:22:26;;;;;;;;;;;18.70;56.80;;;;;;5031870;28;1379;-68
2022/02/16 01:24:51;;;;;;;;;;;18.70;56.80;;;;;;5032791;28;1102;-68
2022/02/16 01:27:17;;;;;;;;;;;18.70;56.80;;;;;;5032894;28;1965;-69
2022/02/16 01:29:42;;;;;;;;;;;18.60;56.80;;;;;;5032481;28;1299;-69
2022/02/16 01:32:08;;;;;;;;;;;18.70;56.80;;;;;;5032525;28;1260;-68
2022/02/16 01:34:33;;;;;;;;;;;18.70;56.90;;;;;;5032730;28;1265;-68
2022/02/16 01:36:59;;;;;;;;;;;18.70;56.80;;;;;;5031545;28;1373;-69
2022/02/16 01:39:24;;;;;;;;;;;18.70;56.90;;;;;;5046369;22;3464;-67
2022/02/16 01:41:52;;;;;;;;;;;18.70;56.90;;;;;;5027221;28;1518;-67
2022/02/16 01:44:21;;;;;;;;;;;18.70;56.90;;;;;;5032887;28;1239;-68
2022/02/16 01:46:59;;;;;;;;;;;18.70;56.90;;;;;;5031304;28;1910;-66
2022/02/16 01:49:24;;;;;;;;;;;18.70;56.90;;;;;;5031067;28;2291;-68
2022/02/16 01:51:50;;;;;;;;;;;18.60;56.90;;;;;;5032472;28;1712;-68
2022/02/16 01:54:15;;;;;;;;;;;18.60;56.90;;;;;;5032934;28;1682;-69
2022/02/16 01:56:44;;;;;;;;;;;18.60;57.50;;;;;;5032701;28;1464;-68
2022/02/16 01:59:09;;;;;;;;;;;18.60;56.90;;;;;;5031003;28;1749;-69
2022/02/16 02:01:35;;;;;;;;;;;18.60;56.90;;;;;;5030736;28;1689;-69
2022/02/16 02:04:00;;;;;;;;;;;18.60;56.90;;;;;;5031507;28;1649;-68
2022/02/16 02:06:26;;;;;;;;;;;18.60;56.90;;;;;;5032461;28;1954;-69
2022/02/16 02:08:51;;;;;;;;;;;18.60;56.90;;;;;;5032246;28;1723;-68
2022/02/16 02:11:17;;;;;;;;;;;18.60;56.90;;;;;;5031087;28;1642;-69
2022/02/16 02:14:01;;;;;;;;;;;18.60;57.00;;;;;;5031609;28;1562;-68
2022/02/16 02:16:27;;;;;;;;;;;18.60;57.00;;;;;;5031149;28;1665;-68
2022/02/16 02:18:52;;;;;;;;;;;18.60;57.00;;;;;;5030717;28;1755;-69
2022/02/16 02:21:18;;;;;;;;;;;18.60;57.00;;;;;;5031307;28;1606;-69
2022/02/16 02:23:44;;;;;;;;;;;18.60;57.00;;;;;;5031458;28;1655;-68
2022/02/16 02:26:09;;;;;;;;;;;18.60;57.00;;;;;;5030805;28;1957;-67
2022/02/16 02:28:35;;;;;;;;;;;18.60;57.00;;;;;;5030186;28;1620;-67
2022/02/16 02:31:00;;;;;;;;;;;18.60;57.00;;;;;;5032006;28;1528;-68
2022/02/16 02:33:26;;;;;;;;;;;18.60;57.00;;;;;;5032285;28;1379;-68
2022/02/16 02:35:51;;;;;;;;;;;18.60;57.00;;;;;;5032408;28;1624;-67
2022/02/16 02:38:17;;;;;;;;;;;18.50;57.00;;;;;;5031853;28;1670;-68
2022/02/16 02:40:42;;;;;;;;;;;18.50;57.00;;;;;;5032099;28;1604;-68
2022/02/16 02:43:08;;;;;;;;;;;18.50;57.00;;;;;;5031779;28;1380;-68
2022/02/16 02:45:33;;;;;;;;;;;18.50;57.00;;;;;;5032704;28;1708;-67
2022/02/16 02:47:59;;;;;;;;;;;18.50;57.10;;;;;;5030982;28;1902;-68
2022/02/16 02:50:24;;;;;;;;;;;18.50;57.10;;;;;;5030299;28;1384;-67
2022/02/16 02:52:50;;;;;;;;;;;18.50;57.10;;;;;;5032413;28;1623;-66
2022/02/16 02:55:15;;;;;;;;;;;18.50;57.10;;;;;;5031037;28;1674;-70
2022/02/16 02:57:41;;;;;;;;;;;18.50;57.10;;;;;;5030906;28;1777;-70
2022/02/16 03:00:07;;;;;;;;;;;18.50;57.10;;;;;;5031200;28;1393;-70
2022/02/16 03:02:32;;;;;;;;;;;18.50;57.10;;;;;;5030830;28;1812;-70
2022/02/16 03:04:58;;;;;;;;;;;18.50;57.10;;;;;;5032586;28;1692;-70
2022/02/16 03:07:23;;;;;;;;;;;18.50;57.10;;;;;;5032155;28;1910;-68
2022/02/16 03:09:48;;;;;;;;;;;18.50;57.10;;;;;;5032127;28;1573;-70
2022/02/16 03:12:14;;;;;;;;;;;18.50;57.20;;;;;;5031441;28;1644;-70
2022/02/16 03:14:39;;;;;;;;;;;18.50;57.20;;;;;;5031910;28;1661;-69
2022/02/16 03:17:05;;;;;;;;;;;18.50;57.20;;;;;;5034414;28;1616;-69
2022/02/16 03:19:30;;;;;;;;;;;18.50;57.20;;;;;;5034702;28;1670;-69
2022/02/16 03:21:56;;;;;;;;;;;18.50;57.20;;;;;;5035448;28;1363;-69
2022/02/16 03:24:21;;;;;;;;;;;18.50;57.20;;;;;;5035474;28;1544;-67
2022/02/16 03:26:46;;;;;;;;;;;18.50;57.20;;;;;;5035216;28;1954;-67
2022/02/16 03:29:12;;;;;;;;;;;18.50;57.20;;;;;;5029129;28;1663;-69
2022/02/16 03:31:37;;;;;;;;;;;18.50;57.20;;;;;;5025100;28;1631;-67
2022/02/16 03:34:03;;;;;;;;;;;18.50;57.20;;;;;;5033970;28;1720;-68
2022/02/16 03:36:28;;;;;;;;;;;18.50;57.20;;;;;;5034042;28;1832;-69
2022/02/16 03:38:54;;;;;;;;;;;18.50;57.20;;;;;;5033209;28;1510;-67
2022/02/16 03:41:20;;;;;;;;;;;18.50;57.20;;;;;;5034848;28;1372;-67
2022/02/16 03:43:45;;;;;;;;;;;18.50;57.30;;;;;;5035259;28;1629;-67
2022/02/16 03:46:10;;;;;;;;;;;18.50;57.30;;;;;;5034904;28;1902;-67
2022/02/16 03:48:36;;;;;;;;;;;18.50;57.30;;;;;;5033042;28;1599;-67
2022/02/16 03:51:02;;;;;;;;;;;18.40;57.30;;;;;;5034959;28;981;-68
2022/02/16 03:53:27;;;;;;;;;;;18.40;57.20;;;;;;5017049;28;1559;-68
2022/02/16 03:55:53;;;;;;;;;;;18.40;57.20;;;;;;5034640;28;1697;-67
2022/02/16 03:58:18;;;;;;;;;;;18.40;57.20;;;;;;5034312;28;1659;-68
2022/02/16 04:00:43;;;;;;;;;;;18.40;57.30;;;;;;5033414;28;1580;-68
2022/02/16 04:03:09;;;;;;;;;;;18.40;57.30;;;;;;5034644;28;1684;-68
2022/02/16 04:05:34;;;;;;;;;;;18.40;57.30;;;;;;5034001;28;1308;-67
2022/02/16 04:08:00;;;;;;;;;;;18.40;57.20;;;;;;5033083;28;1890;-66
2022/02/16 04:10:25;;;;;;;;;;;18.40;57.30;;;;;;5032860;28;1661;-67
2022/02/16 04:12:51;;;;;;;;;;;18.40;57.30;;;;;;5016357;28;1637;-66
2022/02/16 04:15:16;;;;;;;;;;;18.40;57.30;;;;;;5034601;28;1341;-67
2022/02/16 04:17:42;;;;;;;;;;;18.40;57.30;;;;;;5034590;28;1725;-67
2022/02/16 04:20:08;;;;;;;;;;;18.40;57.30;;;;;;5032429;28;1673;-66
2022/02/16 04:22:38;;;;;;;;;;;18.40;57.30;;;;;;5033782;28;1714;-67
2022/02/16 04:25:04;;;;;;;;;;;18.40;57.30;;;;;;5032816;28;1477;-66
2022/02/16 04:27:29;;;;;;;;;;;18.40;57.30;;;;;;5033176;28;1957;-67
2022/02/16 04:29:55;;;;;;;;;;;18.40;57.30;;;;;;5032706;28;1408;-67
2022/02/16 04:32:20;;;;;;;;;;;18.40;57.30;;;;;;5033825;28;1730;-66
2022/02/16 04:34:46;;;;;;;;;;;18.40;57.30;;;;;;5033085;28;1395;-66
2022/02/16 04:37:11;;;;;;;;;;;18.40;57.30;;;;;;5033867;28;1509;-67
2022/02/16 04:39:37;;;;;;;;;;;18.40;57.40;;;;;;5033187;28;1629;-67
2022/02/16 04:42:02;;;;;;;;;;;18.40;57.40;;;;;;5032182;28;1703;-66
2022/02/16 04:44:28;;;;;;;;;;;18.40;57.40;;;;;;5033831;28;1784;-68
2022/02/16 04:46:53;;;;;;;;;;;18.40;57.40;;;;;;5033759;28;1911;-68
2022/02/16 04:49:19;;;;;;;;;;;18.40;57.40;;;;;;5031907;28;1378;-69
2022/02/16 04:51:44;;;;;;;;;;;18.40;57.40;;;;;;5033772;28;1416;-68
2022/02/16 04:54:09;;;;;;;;;;;18.40;57.40;;;;;;5033424;28;1174;-69
2022/02/16 04:56:35;;;;;;;;;;;18.40;57.40;;;;;;5033643;28;1666;-67
2022/02/16 04:59:00;;;;;;;;;;;18.40;57.40;;;;;;5033337;28;1370;-68
2022/02/16 05:01:26;;;;;;;;;;;18.40;57.40;;;;;;5032744;28;1643;-68
2022/02/16 05:03:51;;;;;;;;;;;18.40;57.40;;;;;;5033673;28;1638;-67
2022/02/16 05:06:18;;;;;;;;;;;18.40;57.40;;;;;;5033134;28;1953;-66
2022/02/16 05:08:43;;;;;;;;;;;18.40;57.40;;;;;;5032675;28;1812;-66
2022/02/16 05:11:08;;;;;;;;;;;18.40;57.50;;;;;;5033207;28;1649;-67
2022/02/16 05:13:36;;;;;;;;;;;18.40;57.50;;;;;;5032340;28;1621;-66
2022/02/16 05:16:01;;;;;;;;;;;18.40;57.50;;;;;;5015650;28;1476;-66
2022/02/16 05:18:26;;;;;;;;;;;18.40;57.50;;;;;;5032673;28;1639;-67
2022/02/16 05:20:52;;;;;;;;;;;18.30;57.50;;;;;;5032801;28;1234;-66
2022/02/16 05:23:17;;;;;;;;;;;18.40;57.50;;;;;;5033071;28;1569;-67
2022/02/16 05:25:43;;;;;;;;;;;18.30;58.00;;;;;;5033071;28;1478;-67
2022/02/16 05:28:08;;;;;;;;;;;18.30;57.40;;;;;;5032484;28;1898;-66
2022/02/16 05:30:34;;;;;;;;;;;18.30;57.50;;;;;;5018553;28;1482;-67
2022/02/16 05:33:00;;;;;;;;;;;18.40;57.50;;;;;;5032831;28;1378;-68
2022/02/16 05:35:25;;;;;;;;;;;18.30;57.50;;;;;;5031052;28;1575;-67
2022/02/16 05:37:51;;;;;;;;;;;18.30;57.50;;;;;;5008459;28;2273;-66
2022/02/16 05:40:16;;;;;;;;;;;18.30;57.50;;;;;;5022853;28;1858;-66
2022/02/16 05:42:42;;;;;;;;;;;18.30;57.50;;;;;;5032346;28;1541;-67
2022/02/16 05:45:07;;;;;;;;;;;18.30;57.50;;;;;;5031989;28;1491;-67
2022/02/16 05:47:33;;;;;;;;;;;18.30;57.50;;;;;;5032257;28;1906;-67
2022/02/16 05:49:58;;;;;;;;;;;18.30;57.50;;;;;;5030960;28;1556;-67
2022/02/16 05:52:24;;;;;;;;;;;18.30;57.60;;;;;;5031938;28;1563;-66
2022/02/16 05:54:49;;;;;;;;;;;18.30;57.60;;;;;;5031165;28;1779;-65
2022/02/16 05:57:15;;;;;;;;;;;18.30;57.50;;;;;;5030355;28;1396;-65
2022/02/16 05:59:40;;;;;;;;;;;18.30;57.50;;;;;;5033309;28;1665;-65
2022/02/16 06:02:08;;;;;;;;;;;18.30;57.50;;;;;;5030955;28;1636;-65
2022/02/16 06:04:34;;;;;;;;;;;18.40;57.50;;;;;;5031234;28;1570;-68
2022/02/16 06:07:00;;;;;;;;;;;18.40;57.40;;;;;;5030793;28;1906;-68
2022/02/16 06:09:26;;;;;;;;;;;18.40;57.40;;;;;;5029723;28;1468;-67
2022/02/16 06:11:51;;;;;;;;;;;18.40;57.30;;;;;;5029837;28;1511;-67
2022/02/16 06:14:16;;;;;;;;;;;18.40;57.20;;;;;;5031207;28;1377;-66
2022/02/16 06:16:42;;;;;;;;;;;18.50;57.20;;;;;;5030043;28;1562;-66
2022/02/16 06:19:08;;;;;;;;;;;18.50;57.10;;;;;;5023767;28;1598;-67
2022/02/16 06:21:33;;;;;;;;;;;18.50;57.00;;;;;;5031304;28;1588;-67
2022/02/16 06:23:58;;;;;;;;;;;18.60;56.90;;;;;;5031943;28;1376;-65
2022/02/16 06:26:24;;;;;;;;;;;18.60;56.80;;;;;;5031208;28;1910;-69
2022/02/16 06:28:49;;;;;;;;;;;18.60;56.70;;;;;;5030468;28;1593;-66
2022/02/16 06:31:15;;;;;;;;;;;18.70;56.80;;;;;;5032082;28;1360;-67
2022/02/16 06:33:40;;;;;;;;;;;18.70;56.70;;;;;;5031348;28;1653;-67
2022/02/16 06:36:06;;;;;;;;;;;18.70;56.60;;;;;;5031026;28;1530;-67
2022/02/16 06:38:31;;;;;;;;;;;18.70;56.50;;;;;;5032860;28;1656;-67
2022/02/16 06:40:56;;;;;;;;;;;18.80;56.50;;;;;;5033808;28;1291;-67
2022/02/16 06:43:22;;;;;;;;;;;18.70;56.40;;;;;;5033361;28;1685;-66
2022/02/16 06:45:47;;;;;;;;;;;18.80;56.40;;;;;;5030333;28;1671;-71
2022/02/16 06:48:13;;;;;;;;;;;18.80;56.30;;;;;;5030460;28;1961;-68
2022/02/16 06:50:38;;;;;;;;;;;18.80;56.30;;;;;;5033949;28;1584;-69
2022/02/16 06:53:04;;;;;;;;;;;18.80;56.20;;;;;;5026905;28;1667;-66
2022/02/16 06:55:30;;;;;;;;;;;18.80;56.20;;;;;;5024613;28;1351;-66
2022/02/16 06:57:57;;;;;;;;;;;18.80;56.30;;;;;;5024957;28;1314;-67
2022/02/16 07:00:22;;;;;;;;;;;18.90;56.30;;;;;;5025116;28;1242;-65
2022/02/16 07:02:48;;;;;;;;;;;18.90;56.30;;;;;;5024964;28;1308;-66
2022/02/16 07:05:14;;;;;;;;;;;18.90;56.20;;;;;;5027371;28;1341;-66
2022/02/16 07:07:40;;;;;;;;;;;18.90;56.20;;;;;;5022484;28;1894;-69
2022/02/16 07:10:05;;;;;;;;;;;18.90;56.20;;;;;;5026283;28;1381;-66
2022/02/16 07:12:32;;;;;;;;;;;18.90;56.10;;;;;;5024564;28;1324;-65
2022/02/16 07:14:57;;;;;;;;;;;18.90;56.10;;;;;;5026793;28;1338;-67
2022/02/16 07:17:23;;;;;;;;;;;18.90;56.10;;;;;;5024763;28;1231;-69
2022/02/16 07:19:48;;;;;;;;;;;18.90;56.10;;;;;;5028970;28;1437;-68
2022/02/16 07:22:14;;;;;;;;;;;18.90;56.00;;;;;;5026584;28;1290;-69
2022/02/16 07:24:39;;;;;;;;;;;18.90;56.00;;;;;;5025293;28;1264;-68
2022/02/16 07:27:05;;;;;;;;;;;18.90;56.00;;;;;;5024664;28;1891;-65
2022/02/16 07:29:30;;;;;;;;;;;18.90;56.00;;;;;;5024895;28;1392;-69
2022/02/16 07:31:55;;;;;;;;;;;18.90;56.00;;;;;;5023856;28;1382;-69
2022/02/16 07:34:24;;;;;;;;;;;19.00;56.00;;;;;;5023697;28;1370;-67
2022/02/16 07:36:49;;;;;;;;;;;19.00;56.00;;;;;;5026622;28;1328;-67
2022/02/16 07:39:15;;;;;;;;;;;19.00;55.90;;;;;;5018722;28;1427;-67
2022/02/16 07:41:40;;;;;;;;;;;19.00;55.90;;;;;;5052893;22;2078;-65
2022/02/16 07:44:06;;;;;;;;;;;19.10;55.90;;;;;;5041328;28;1358;-67
2022/02/16 07:46:31;;;;;;;;;;;19.20;55.70;;;;;;5052399;28;1967;-68
2022/02/16 07:48:56;;;;;;;;;;;19.30;55.60;;;;;;5053588;28;1514;-71
2022/02/16 07:51:22;;;;;;;;;;;19.40;55.50;;;;;;5047094;28;1409;-72
2022/02/16 07:53:48;;;;;;;;;;;19.50;55.30;;;;;;5033689;28;1389;-67
2022/02/16 07:56:14;;;;;;;;;;;19.70;55.00;;;;;;5032818;28;1303;-69
2022/02/16 07:58:39;;;;;;;;;;;19.80;54.80;;;;;;5033720;28;2439;-70
2022/02/16 08:01:05;;;;;;;;;;;19.90;54.60;;;;;;5033275;28;1474;-69
2022/02/16 08:03:30;;;;;;;;;;;20.00;54.30;;;;;;5032890;28;1326;-70
2022/02/16 08:05:56;;;;;;;;;;;20.10;54.10;;;;;;5027729;28;1209;-69
2022/02/16 08:08:21;;;;;;;;;;;20.20;53.80;;;;;;5015791;28;1894;-68
2022/02/16 08:10:50;;;;;;;;;;;20.30;53.60;;;;;;5016543;28;1724;-70
2022/02/16 08:13:18;;;;;;;;;;;20.40;53.40;;;;;;5034139;28;972;-70
2022/02/16 08:15:44;;;;;;;;;;;20.50;53.20;;;;;;5033006;28;1627;-69
2022/02/16 08:18:09;;;;;;;;;;;20.50;53.00;;;;;;5032611;28;1395;-70
2022/02/16 08:20:34;;;;;;;;;;;20.60;52.90;;;;;;5033078;28;1452;-70
2022/02/16 08:23:00;;;;;;;;;;;20.60;52.70;;;;;;5032039;28;2097;-69
2022/02/16 08:25:26;;;;;;;;;;;20.70;52.70;;;;;;5025875;28;1178;-69
2022/02/16 08:27:52;;;;;;;;;;;20.70;52.60;;;;;;5032287;28;1894;-69
2022/02/16 08:30:18;;;;;;;;;;;20.70;52.50;;;;;;5026040;28;1451;-70
2022/02/16 08:32:43;;;;;;;;;;;20.80;52.60;;;;;;5033738;28;1809;-69
2022/02/16 08:35:09;;;;;;;;;;;20.80;52.50;;;;;;5021780;28;1201;-69
2022/02/16 08:37:35;;;;;;;;;;;20.80;52.50;;;;;;5032225;28;1436;-69
2022/02/16 08:40:01;;;;;;;;;;;20.80;52.50;;;;;;5032689;28;1656;-69
2022/02/16 08:42:26;;;;;;;;;;;20.80;52.60;;;;;;5027264;28;1481;-70
2022/02/16 08:44:52;;;;;;;;;;;20.80;52.60;;;;;;5031982;28;1372;-70
2022/02/16 08:47:17;;;;;;;;;;;20.80;52.60;;;;;;5033427;28;1910;-69
2022/02/16 08:49:44;;;;;;;;;;;20.80;52.60;;;;;;5029356;28;1987;-69
2022/02/16 08:52:12;;;;;;;;;;;20.80;52.60;;;;;;5032337;28;1409;-69
2022/02/16 08:54:38;;;;;;;;;;;20.80;52.60;;;;;;5026367;28;1634;-70
2022/02/16 08:57:04;;;;;;;;;;;20.80;52.60;;;;;;5026983;28;1663;-69
2022/02/16 08:59:29;;;;;;;;;;;20.80;52.60;;;;;;5023803;28;1279;-70
2022/02/16 09:01:55;;;;;;;;;;;20.70;52.50;;;;;;5031876;28;1587;-69
2022/02/16 09:04:20;;;;;;;;;;;20.70;52.60;;;;;;5032866;28;1351;-69
2022/02/16 09:07:27;;;;;;;;;;;20.70;52.60;;;;;;5016609;28;2025;-70
2022/02/16 09:09:33;;;;;;;;;;;20.70;52.70;;;;;;5019461;28;1399;-69
2022/02/16 09:11:59;;;;;;;;;;;20.70;52.70;;;;;;5015218;28;1708;-69
2022/02/16 09:14:24;;;;;;;;;;;20.70;52.80;;;;;;5032869;28;1389;-69
2022/02/16 09:16:50;;;;;;;;;;;20.60;52.80;;;;;;5032686;28;1721;-70
2022/02/16 09:19:15;;;;;;;;;;;20.60;52.90;;;;;;5023335;28;1622;-69
2022/02/16 09:21:41;;;;;;;;;;;20.60;52.90;;;;;;5030915;28;1374;-69
2022/02/16 09:24:06;;;;;;;;;;;20.60;53.00;;;;;;5032400;28;1530;-69
2022/02/16 09:26:33;;;;;;;;;;;20.60;53.10;;;;;;5032279;28;1951;-69
2022/02/16 09:28:59;;;;;;;;;;;20.50;53.00;;;;;;5031558;28;1675;-69
2022/02/16 09:31:24;;;;;;;;;;;20.50;53.10;;;;;;5032525;28;1646;-69
2022/02/16 09:33:51;;;;;;;;;;;20.50;53.10;;;;;;5032618;28;1610;-69
2022/02/16 09:36:16;;;;;;;;;;;20.50;53.20;;;;;;5024073;28;1964;-69
2022/02/16 09:38:42;;;;;;;;;;;20.50;53.30;;;;;;5036111;28;1366;-69
2022/02/16 09:41:07;;;;;;;;;;;20.50;53.30;;;;;;5023155;28;1644;-69
2022/02/16 09:43:33;;;;;;;;;;;20.40;53.30;;;;;;5020150;28;1282;-69
2022/02/16 09:45:58;;;;;;;;;;;20.40;53.40;;;;;;5031115;28;1674;-69
2022/02/16 09:48:24;;;;;;;;;;;20.40;53.40;;;;;;5014052;28;1963;-69
2022/02/16 09:50:49;;;;;;;;;;;20.40;53.40;;;;;;5027887;28;2249;-70
2022/02/16 09:53:15;;;;;;;;;;;20.40;53.50;;;;;;5023664;28;1737;-71
2022/02/16 09:55:40;;;;;;;;;;;20.40;53.50;;;;;;5031078;28;1079;-71
2022/02/16 09:58:06;;;;;;;;;;;20.30;53.50;;;;;;5028301;28;2093;-70
2022/02/16 10:00:31;;;;;;;;;;;20.30;53.60;;;;;;5028042;28;1237;-69
2022/02/16 10:02:57;;;;;;;;;;;20.30;53.60;;;;;;5031354;28;1685;-70
2022/02/16 10:05:25;;;;;;;;;;;20.30;53.70;;;;;;5029700;28;1302;-70
2022/02/16 10:07:51;;;;;;;;;;;20.20;53.70;;;;;;5029785;28;1943;-70
2022/02/16 10:10:17;;;;;;;;;;;20.20;53.70;;;;;;5030765;28;1662;-70
2022/02/16 10:12:44;;;;;;;;;;;20.20;53.80;;;;;;5029771;28;1695;-70
2022/02/16 10:15:10;;;;;;;;;;;20.20;53.90;;;;;;5026422;28;2283;-71
2022/02/16 10:17:36;;;;;;;;;;;20.20;53.90;;;;;;5023894;28;1352;-71
2022/02/16 10:20:02;;;;;;;;;;;20.20;54.50;;;;;;5029235;28;1573;-71
2022/02/16 10:22:30;;;;;;;;;;;20.20;54.00;;;;;;5024676;28;1355;-71
2022/02/16 10:25:07;;;;;;;;;;;20.10;54.00;;;;;;5042108;28;1367;-71
2022/02/16 10:27:32;;;;;;;;;;;20.10;54.00;;;;;;5032655;28;1963;-70
2022/02/16 10:29:58;;;;;;;;;;;20.10;54.00;;;;;;5044861;28;1554;-71
2022/02/16 10:32:28;;;;;;;;;;;20.10;54.00;;;;;;5037276;28;1347;-71
2022/02/16 10:34:54;;;;;;;;;;;20.10;54.10;;;;;;5026571;28;1869;-71
2022/02/16 10:37:20;;;;;;;;;;;20.10;54.10;;;;;;5035063;28;1488;-71
2022/02/16 10:39:59;;;;;;;;;;;20.10;54.10;;;;;;5027419;28;1513;-70
2022/02/16 10:42:25;;;;;;;;;;;20.10;54.10;;;;;;5030889;28;1634;-71
2022/02/16 10:45:02;;;;;;;;;;;20.10;54.10;;;;;;5028511;28;1443;-71
2022/02/16 10:47:27;;;;;;;;;;;20.10;54.10;;;;;;5024768;28;2235;-70
2022/02/16 10:49:55;;;;;;;;;;;20.10;54.20;;;;;;5030262;28;1499;-70
2022/02/16 10:52:21;;;;;;;;;;;20.10;54.20;;;;;;5023812;28;1742;-70
2022/02/16 10:54:53;;;;;;;;;;;20.10;54.20;;;;;;5027528;28;1334;-70
2022/02/16 10:57:19;;;;;;;;;;;20.10;54.10;;;;;;5023934;28;1467;-71
2022/02/16 10:59:44;;;;;;;;;;;20.10;54.10;;;;;;5026200;28;1255;-71
2022/02/16 11:02:11;;;;;;;;;;;20.10;54.10;;;;;;5028957;28;1916;-70
2022/02/16 11:04:37;;;;;;;;;;;20.10;54.10;;;;;;5026428;28;1322;-71
2022/02/16 11:07:04;;;;;;;;;;;20.10;54.10;;;;;;5022706;28;1890;-72
2022/02/16 11:09:32;;;;;;;;;;;20.10;54.00;;;;;;5005461;28;1220;-72
2022/02/16 11:11:58;;;;;;;;;;;20.20;54.00;;;;;;5024659;28;1386;-70
2022/02/16 11:14:25;;;;;;;;;;;20.20;54.00;;;;;;5029790;28;1187;-70
2022/02/16 11:16:50;;;;;;;;;;;20.20;53.90;;;;;;5033066;28;1384;-70
2022/02/16 11:19:19;;;;;;;;;;;20.20;53.90;;;;;;5030109;28;1271;-71
2022/02/16 11:21:57;;;;;;;;;;;20.20;53.90;;;;;;5033489;28;1451;-70
2022/02/16 11:24:31;;;;;;;;;;;20.20;53.90;;;;;;5016435;28;1676;-70
2022/02/16 11:26:57;;;;;;;;;;;20.20;53.90;;;;;;5034011;28;1890;-70
2022/02/16 11:29:25;;;;;;;;;;;20.20;53.80;;;;;;5038543;28;1639;-70
2022/02/16 11:32:00;;;;;;;;;;;20.20;53.80;;;;;;5031624;28;1434;-70
2022/02/16 11:34:25;;;;;;;;;;;20.20;53.90;;;;;;5025996;28;1385;-70
2022/02/16 11:36:54;;;;;;;;;;;20.20;53.90;;;;;;5026244;28;2086;-70
2022/02/16 11:39:38;;;;;;;;;;;20.20;53.90;;;;;;5022981;28;1601;-69
2022/02/16 11:42:04;;;;;;;;;;;20.20;53.90;;;;;;5028960;28;1618;-70
2022/02/16 11:44:48;;;;;;;;;;;20.20;54.00;;;;;;5024049;28;1562;-70
2022/02/16 11:47:32;;;;;;;;;;;20.20;54.10;;;;;;5047711;28;2001;-71
2022/02/16 11:49:57;;;;;;;;;;;20.10;54.50;;;;;;5031965;28;1150;-70
2022/02/16 11:52:30;;;;;;;;;;;20.20;54.70;;;;;;5009624;28;1401;-70
2022/02/16 11:54:55;;;;;;;;;;;20.20;54.70;;;;;;5027829;28;1389;-70
2022/02/16 11:57:36;;;;;;;;;;;20.10;54.90;;;;;;5027580;28;1581;-70
2022/02/16 12:00:18;;;;;;;;;;;20.10;54.60;;;;;;5024668;28;1922;-71
2022/02/16 12:03:17;;;;;;;;;;;20.10;54.60;;;;;;5030814;28;1734;-70
2022/02/16 12:05:42;;;;;;;;;;;20.10;54.60;;;;;;5026897;28;1546;-70
2022/02/16 12:08:12;;;;;;;;;;;20.10;54.60;;;;;;5040340;28;1965;-70
2022/02/16 12:10:44;;;;;;;;;;;20.10;54.60;;;;;;5030009;28;1487;-71
2022/02/16 12:13:10;;;;;;;;;;;20.10;54.60;;;;;;5026456;28;2394;-70
2022/02/16 12:15:35;;;;;;;;;;;20.10;54.60;;;;;;5026116;28;1527;-71
2022/02/16 12:18:01;;;;;;;;;;;20.10;54.60;;;;;;5032724;28;1170;-70
2022/02/16 12:20:26;;;;;;;;;;;20.00;54.60;;;;;;5031935;28;1433;-70
2022/02/16 12:22:52;;;;;;;;;;;20.10;54.70;;;;;;5032568;28;1678;-70
2022/02/16 12:25:18;;;;;;;;;;;20.00;54.60;;;;;;5031980;28;1356;-70
2022/02/16 12:27:43;;;;;;;;;;;20.00;54.60;;;;;;5031440;28;1899;-70
2022/02/16 12:30:09;;;;;;;;;;;20.00;54.60;;;;;;5030417;28;1575;-70
2022/02/16 12:32:34;;;;;;;;;;;20.10;54.70;;;;;;5030844;28;1657;-70
2022/02/16 12:35:06;;;;;;;;;;;20.10;54.60;;;;;;5021655;28;1428;-70
2022/02/16 12:37:31;;;;;;;;;;;20.10;54.50;;;;;;5027710;28;1881;-70
2022/02/16 12:40:00;;;;;;;;;;;20.10;54.50;;;;;;5042302;28;2009;-71
2022/02/16 12:42:29;;;;;;;;;;;20.20;54.40;;;;;;5027354;28;1368;-70
2022/02/16 12:44:56;;;;;;;;;;;20.20;54.40;;;;;;5020795;28;1526;-69
2022/02/16 12:47:22;;;;;;;;;;;20.10;54.30;;;;;;5032882;28;1898;-69
2022/02/16 12:49:47;;;;;;;;;;;20.20;54.30;;;;;;5031919;28;1611;-69
2022/02/16 12:52:13;;;;;;;;;;;20.20;54.30;;;;;;5033042;28;1842;-69
2022/02/16 12:54:39;;;;;;;;;;;20.20;54.30;;;;;;5032212;28;1413;-69
2022/02/16 12:57:09;;;;;;;;;;;20.20;54.30;;;;;;5032079;28;1140;-69
2022/02/16 12:59:36;;;;;;;;;;;20.20;54.30;;;;;;5030382;28;1426;-69
2022/02/16 13:02:20;;;;;;;;;;;20.20;54.20;;;;;;5031433;28;1722;-69
2022/02/16 13:04:55;;;;;;;;;;;20.20;54.20;;;;;;5029022;28;1864;-69
2022/02/16 13:07:21;;;;;;;;;;;20.20;54.20;;;;;;5031849;28;1898;-70
2022/02/16 13:09:47;;;;;;;;;;;20.20;54.20;;;;;;5022172;28;1444;-69
2022/02/16 13:12:31;;;;;;;;;;;20.20;54.20;;;;;;5018796;28;1268;-69
2022/02/16 13:14:56;;;;;;;;;;;20.20;54.20;;;;;;5025164;28;1391;-69
2022/02/16 13:17:27;;;;;;;;;;;20.20;54.20;;;;;;5020488;28;1299;-69
2022/02/16 13:19:52;;;;;;;;;;;20.20;54.20;;;;;;5019557;28;2791;-70
2022/02/16 13:22:19;;;;;;;;;;;20.20;54.20;;;;;;5041758;28;1824;-70
2022/02/16 13:24:48;;;;;;;;;;;20.20;54.30;;;;;;5021511;28;1529;-70
2022/02/16 13:27:14;;;;;;;;;;;20.10;54.20;;;;;;5019702;28;1902;-70
2022/02/16 13:29:39;;;;;;;;;;;20.10;54.20;;;;;;5025528;28;1383;-69
2022/02/16 13:32:05;;;;;;;;;;;20.20;54.30;;;;;;5021765;28;1319;-69
2022/02/16 13:34:47;;;;;;;;;;;20.10;54.30;;;;;;5006701;28;1914;-69
2022/02/16 13:37:12;;;;;;;;;;;20.10;54.30;;;;;;5026258;28;1806;-70
2022/02/16 13:39:38;;;;;;;;;;;20.10;54.30;;;;;;5023927;28;1294;-70
2022/02/16 13:42:04;;;;;;;;;;;20.10;54.30;;;;;;5013850;28;1400;-70
2022/02/16 13:44:29;;;;;;;;;;;20.10;54.40;;;;;;5016928;28;1374;-69
2022/02/16 13:46:57;;;;;;;;;;;20.10;54.40;;;;;;5027085;28;2208;-69
2022/02/16 13:49:23;;;;;;;;;;;20.10;54.40;;;;;;5033245;28;1112;-69
2022/02/16 13:51:51;;;;;;;;;;;20.00;54.40;;;;;;5041776;23;3631;-67
2022/02/16 13:54:18;;;;;;;;;;;20.10;54.40;;;;;;5046243;28;1370;-69
2022/02/16 13:56:47;;;;;;;;;;;20.00;54.40;;;;;;5048114;28;1475;-69
2022/02/16 13:59:13;;;;;;;;;;;20.00;54.40;;;;;;5047202;28;1260;-69
2022/02/16 14:01:38;;;;;;;;;;;20.00;54.50;;;;;;5047764;28;1212;-67
2022/02/16 14:04:07;;;;;;;;;;;20.00;54.50;;;;;;5041685;28;1281;-67
2022/02/16 14:06:33;;;;;;;;;;;20.00;54.50;;;;;;5037264;28;1971;-67
2022/02/16 14:08:58;;;;;;;;;;;20.00;54.50;;;;;;5059439;28;1098;-67
2022/02/16 14:11:24;;;;;;;;;;;20.00;54.60;;;;;;5036054;28;1356;-67
2022/02/16 14:13:50;;;;;;;;;;;20.00;54.60;;;;;;5022026;28;945;-68
2022/02/16 14:16:15;;;;;;;;;;;20.00;54.60;;;;;;5050597;28;1076;-68
2022/02/16 14:18:41;;;;;;;;;;;20.00;54.60;;;;;;5051430;28;1249;-68
2022/02/16 14:21:08;;;;;;;;;;;19.90;54.60;;;;;;5051705;28;1314;-67
2022/02/16 14:23:35;;;;;;;;;;;19.90;54.60;;;;;;5050599;28;1360;-67
2022/02/16 14:26:00;;;;;;;;;;;19.90;54.60;;;;;;5051782;28;1110;-67
2022/02/16 14:28:26;;;;;;;;;;;19.90;54.70;;;;;;5049925;28;1906;-67